SLLP/LPB METAR and TAF weather

Enter ICAO airport designator
Station Type Date Time Source
SLLP METAR 2020/07/10 16:00 UTC NOAA

SLLP 101600Z 28009KT 230V320 9999 FEW070 SCT200 11/M10 Q1038


Station Type Date Time Source
SLLP Decoded METAR 2020/07/10 16:00 UTC NOAA

La Paz / Alto, Bolivia (SLLP) 16-31S 068-11W 4038M
Jul 10, 2020 - 12:00 PM EDT / 2020.07.10 1600 UTC
Wind: from the W (280 degrees) at 10 MPH (9 KT) (direction variable):0
Visibility: greater than 7 mile(s):0
Sky conditions: partly cloudy
Temperature: 51 F (11 C)
Dew Point: 14 F (-10 C)
Relative Humidity: 21%
Pressure (altimeter): 30.65 in. Hg (1038 hPa)
ob: SLLP 101600Z 28009KT 230V320 9999 FEW070 SCT200 11/M10 Q1038
cycle: 16

Station Type Date Time Source
SLLP TAF 2020/07/10 12:54 UTC NOAA

TAF SLLP 101050Z 1012/1112 24008KT 9999 FEW015 TX14/1020Z TNM10/1111Z
TEMPO 1018/1022 30010G20KT FEW020CB SCT070
BECMG 1023/1101 04005KT NSC

Example: see airport list